Time;durP1;ratioP1;P1;durP2;ratioP2;P2;SDS_P1;SDS_P2;PMS_P1;PMS_P2;Temp;Humidity;BMP_temperature;BMP_pressure;BME280_temperature;BME280_humidity;BME280_pressure;Samples;Min_cycle;Max_cycle;Signal;HPM_P1;HPM_P2
2022/05/09 00:00:00;;;;;;;2.80;2.60;;;;;;;;;;5053645;28;20766;-83
2022/05/09 00:02:26;;;;;;;2.57;2.47;;;;;;;;;;5053635;28;20468;-83
2022/05/09 00:04:52;;;;;;;5.70;2.80;;;;;;;;;;5053652;28;20887;-81
2022/05/09 00:07:19;;;;;;;2.57;2.57;;;;;;;;;;5053507;28;20423;-78
2022/05/09 00:09:44;;;;;;;3.23;3.17;;;;;;;;;;5053176;28;20509;-78
2022/05/09 00:12:11;;;;;;;2.40;2.40;;;;;;;;;;5053208;28;20462;-84
2022/05/09 00:17:41;;;;;;;2.63;2.53;;;;;;;;;;5053063;28;20853;-84
2022/05/09 00:20:08;;;;;;;2.40;2.40;;;;;;;;;;5052992;28;20929;-83
2022/05/09 00:22:54;;;;;;;2.77;1.90;;;;;;;;;;5053014;28;20489;-83
2022/05/09 00:25:21;;;;;;;1.80;1.80;;;;;;;;;;5052800;28;20417;-83
2022/05/09 00:27:47;;;;;;;3.20;3.10;;;;;;;;;;5052868;28;20434;-84
2022/05/09 00:30:14;;;;;;;3.33;3.13;;;;;;;;;;5053217;28;20460;-84
2022/05/09 00:32:40;;;;;;;3.40;3.30;;;;;;;;;;5053322;28;20500;-84
2022/05/09 00:35:09;;;;;;;2.30;2.30;;;;;;;;;;5053364;28;20410;-84
2022/05/09 00:37:35;;;;;;;3.07;2.97;;;;;;;;;;5052804;28;20813;-78
2022/05/09 00:40:01;;;;;;;2.60;2.50;;;;;;;;;;5052812;28;20468;-84
2022/05/09 00:42:27;;;;;;;2.70;2.50;;;;;;;;;;5051474;28;20485;-81
2022/05/09 00:44:53;;;;;;;2.20;2.20;;;;;;;;;;5053033;28;20516;-82
2022/05/09 00:47:20;;;;;;;3.00;2.90;;;;;;;;;;5053030;28;20450;-83
2022/05/09 00:49:49;;;;;;;2.93;2.93;;;;;;;;;;5052737;28;20410;-82
2022/05/09 00:52:27;;;;;;;2.67;2.57;;;;;;;;;;5053092;28;20808;-81
2022/05/09 00:54:56;;;;;;;2.90;2.80;;;;;;;;;;5052618;28;20505;-83
2022/05/09 00:57:29;;;;;;;2.83;2.73;;;;;;;;;;5052887;28;20410;-80
2022/05/09 00:59:58;;;;;;;3.77;3.50;;;;;;;;;;5053445;28;20429;-75
2022/05/09 01:02:25;;;;;;;3.60;3.40;;;;;;;;;;5054801;28;20425;-75
2022/05/09 01:04:55;;;;;;;2.93;2.87;;;;;;;;;;5056707;28;20418;-80
2022/05/09 01:07:22;;;;;;;3.33;3.23;;;;;;;;;;5056725;28;20509;-78
2022/05/09 01:09:49;;;;;;;3.20;3.13;;;;;;;;;;5056844;28;20407;-82
2022/05/09 01:12:16;;;;;;;3.27;3.10;;;;;;;;;;5056307;28;20544;-84
2022/05/09 01:17:48;;;;;;;3.10;2.90;;;;;;;;;;5056335;28;20452;-82
2022/05/09 01:20:15;;;;;;;4.20;3.40;;;;;;;;;;5056185;28;20877;-83
2022/05/09 01:22:42;;;;;;;3.10;3.00;;;;;;;;;;5056126;28;20426;-83
2022/05/09 01:25:10;;;;;;;3.90;3.70;;;;;;;;;;5056565;28;20441;-82
2022/05/09 01:27:37;;;;;;;3.10;2.90;;;;;;;;;;5056261;28;20447;-81
2022/05/09 01:30:05;;;;;;;4.20;4.10;;;;;;;;;;5056034;28;20410;-83
2022/05/09 01:32:34;;;;;;;2.23;2.20;;;;;;;;;;5056140;28;20480;-84
2022/05/09 01:35:04;;;;;;;4.03;3.90;;;;;;;;;;5056905;28;20430;-84
2022/05/09 01:37:32;;;;;;;3.93;3.83;;;;;;;;;;5054632;28;20422;-81
2022/05/09 01:39:58;;;;;;;3.70;3.60;;;;;;;;;;5056008;28;20461;-83
2022/05/09 01:42:24;;;;;;;3.70;3.60;;;;;;;;;;5055701;28;20449;-82
2022/05/09 01:44:50;;;;;;;4.07;3.73;;;;;;;;;;5056196;28;20419;-81
2022/05/09 01:50:01;;;;;;;3.83;3.73;;;;;;;;;;5055487;28;20480;-77
2022/05/09 01:52:27;;;;;;;3.30;3.30;;;;;;;;;;5055567;28;20466;-80
2022/05/09 01:54:53;;;;;;;2.77;2.77;;;;;;;;;;5055572;28;20891;-80
2022/05/09 01:57:19;;;;;;;4.77;4.57;;;;;;;;;;5055770;28;20425;-83
2022/05/09 01:59:45;;;;;;;5.07;3.90;;;;;;;;;;5055516;28;20406;-84
2022/05/09 02:02:20;;;;;;;4.70;4.40;;;;;;;;;;5055345;28;20541;-84
2022/05/09 02:04:47;;;;;;;5.40;5.00;;;;;;;;;;5055599;28;20793;-84
2022/05/09 02:07:14;;;;;;;4.57;4.37;;;;;;;;;;5055625;28;20445;-82
2022/05/09 02:09:41;;;;;;;5.03;4.73;;;;;;;;;;5055561;28;20501;-82
2022/05/09 02:12:07;;;;;;;4.00;3.37;;;;;;;;;;5055411;28;20832;-81
2022/05/09 02:14:34;;;;;;;4.33;4.13;;;;;;;;;;5054002;28;20882;-79
2022/05/09 02:17:01;;;;;;;4.23;4.03;;;;;;;;;;5055116;28;20567;-80
2022/05/09 02:19:27;;;;;;;5.80;5.37;;;;;;;;;;5055079;28;20608;-83
2022/05/09 02:21:53;;;;;;;4.50;4.40;;;;;;;;;;5055047;28;20422;-80
2022/05/09 02:24:19;;;;;;;4.97;4.57;;;;;;;;;;5054919;28;20473;-83
2022/05/09 02:26:45;;;;;;;5.97;4.60;;;;;;;;;;5054970;28;20497;-82
2022/05/09 02:29:12;;;;;;;4.70;4.50;;;;;;;;;;5055200;28;20489;-83
2022/05/09 02:31:38;;;;;;;3.93;3.83;;;;;;;;;;5055158;28;20439;-81
2022/05/09 02:34:03;;;;;;;7.03;4.43;;;;;;;;;;5055438;28;20617;-82
2022/05/09 02:36:29;;;;;;;3.80;3.70;;;;;;;;;;5055006;28;20422;-81
2022/05/09 02:38:55;;;;;;;4.73;4.33;;;;;;;;;;5054676;28;20989;-81
2022/05/09 02:41:22;;;;;;;5.90;4.40;;;;;;;;;;5054715;28;20506;-78
2022/05/09 02:43:48;;;;;;;4.10;4.00;;;;;;;;;;5054757;28;20421;-78
2022/05/09 02:46:14;;;;;;;4.50;4.30;;;;;;;;;;5054563;28;20449;-83
2022/05/09 02:48:40;;;;;;;4.90;4.70;;;;;;;;;;5054855;28;20419;-83
2022/05/09 02:51:08;;;;;;;5.07;4.73;;;;;;;;;;5054323;28;20473;-84
2022/05/09 02:53:34;;;;;;;4.10;4.00;;;;;;;;;;5054569;28;20473;-82
2022/05/09 02:56:00;;;;;;;5.23;4.40;;;;;;;;;;5054562;28;20509;-84
2022/05/09 02:58:26;;;;;;;4.90;4.60;;;;;;;;;;5054627;28;20448;-80
2022/05/09 03:00:52;;;;;;;4.60;4.43;;;;;;;;;;5054567;28;20411;-84
2022/05/09 03:06:03;;;;;;;5.17;4.93;;;;;;;;;;5054783;28;20398;-83
2022/05/09 03:08:29;;;;;;;4.40;4.30;;;;;;;;;;5054465;28;20475;-84
2022/05/09 03:10:56;;;;;;;5.20;4.83;;;;;;;;;;5054070;28;20972;-83
2022/05/09 03:13:22;;;;;;;4.63;4.43;;;;;;;;;;5054199;28;20473;-84
2022/05/09 03:15:49;;;;;;;7.03;4.80;;;;;;;;;;5054220;28;20421;-82
2022/05/09 03:18:16;;;;;;;4.67;4.47;;;;;;;;;;5052784;28;20445;-83
2022/05/09 03:20:43;;;;;;;4.83;4.13;;;;;;;;;;5054176;28;20418;-80
2022/05/09 03:23:10;;;;;;;4.97;4.67;;;;;;;;;;5053906;28;20422;-80
2022/05/09 03:25:37;;;;;;;4.40;4.17;;;;;;;;;;5053973;28;20418;-80
2022/05/09 03:28:04;;;;;;;4.20;4.10;;;;;;;;;;5054022;28;20492;-83
2022/05/09 03:30:30;;;;;;;3.90;3.80;;;;;;;;;;5053723;28;20426;-81
2022/05/09 03:32:56;;;;;;;4.83;4.43;;;;;;;;;;5053891;28;20512;-73
2022/05/09 03:35:22;;;;;;;5.07;4.60;;;;;;;;;;5053900;28;20415;-75
2022/05/09 03:37:48;;;;;;;4.50;4.20;;;;;;;;;;5053646;28;20430;-80
2022/05/09 03:40:15;;;;;;;5.40;4.97;;;;;;;;;;5053593;28;20838;-83
2022/05/09 03:42:41;;;;;;;4.43;4.20;;;;;;;;;;5053774;28;20882;-77
2022/05/09 03:45:08;;;;;;;4.87;4.63;;;;;;;;;;5053665;28;20419;-83
2022/05/09 03:47:34;;;;;;;5.53;5.03;;;;;;;;;;5053462;28;20411;-83
2022/05/09 03:50:00;;;;;;;4.97;4.77;;;;;;;;;;5053439;28;20469;-83
2022/05/09 03:52:25;;;;;;;5.27;4.97;;;;;;;;;;5053396;28;20557;-81
2022/05/09 03:54:52;;;;;;;5.90;4.67;;;;;;;;;;5053772;28;20410;-83
2022/05/09 03:57:18;;;;;;;5.10;4.80;;;;;;;;;;5053555;28;20430;-81
2022/05/09 03:59:44;;;;;;;6.90;5.73;;;;;;;;;;5053585;28;20414;-78
2022/05/09 04:02:10;;;;;;;7.13;5.43;;;;;;;;;;5053452;28;20517;-83
2022/05/09 04:04:36;;;;;;;8.33;5.90;;;;;;;;;;5053217;28;20454;-83
2022/05/09 04:07:02;;;;;;;5.60;5.10;;;;;;;;;;5053370;28;20422;-82
2022/05/09 04:09:28;;;;;;;5.53;5.27;;;;;;;;;;5053283;28;20422;-83
2022/05/09 04:11:54;;;;;;;5.40;5.00;;;;;;;;;;5052994;28;20418;-83
2022/05/09 04:16:49;;;;;;;5.27;5.03;;;;;;;;;;5052871;28;20488;-82
2022/05/09 04:17:07;;;;;;;5.30;5.00;;;;;;;;;;5052951;28;20747;-83
2022/05/09 04:19:33;;;;;;;7.87;7.47;;;;;;;;;;5052950;28;20453;-78
2022/05/09 04:22:02;;;;;;;14.67;7.57;;;;;;;;;;5053016;28;20503;-79
2022/05/09 04:24:29;;;;;;;14.43;6.40;;;;;;;;;;5052679;28;20422;-76
2022/05/09 04:26:55;;;;;;;5.30;5.10;;;;;;;;;;5052744;28;20410;-73
2022/05/09 04:29:22;;;;;;;5.27;4.87;;;;;;;;;;5053421;28;20556;-82
2022/05/09 04:31:48;;;;;;;5.17;4.83;;;;;;;;;;5052734;28;20425;-82
2022/05/09 04:34:14;;;;;;;5.70;5.10;;;;;;;;;;5052999;28;20478;-84
2022/05/09 04:36:41;;;;;;;4.90;4.60;;;;;;;;;;5053764;28;20414;-81
2022/05/09 04:39:07;;;;;;;5.40;5.10;;;;;;;;;;5057094;28;20495;-82
2022/05/09 04:41:33;;;;;;;10.60;4.67;;;;;;;;;;5057948;28;20502;-82
2022/05/09 04:43:59;;;;;;;5.97;5.60;;;;;;;;;;5057093;28;20488;-84
2022/05/09 04:46:26;;;;;;;5.20;5.10;;;;;;;;;;5056931;28;20425;-82
2022/05/09 04:48:52;;;;;;;5.30;5.00;;;;;;;;;;5056967;28;20509;-81
2022/05/09 04:51:18;;;;;;;5.70;5.40;;;;;;;;;;5056694;28;20627;-84
2022/05/09 04:53:46;;;;;;;5.30;5.00;;;;;;;;;;5056620;28;20846;-83
2022/05/09 04:56:12;;;;;;;6.67;5.60;;;;;;;;;;5056419;28;20783;-82
2022/05/09 04:58:38;;;;;;;5.93;5.20;;;;;;;;;;5056632;28;20437;-83
2022/05/09 05:01:04;;;;;;;10.43;6.40;;;;;;;;;;5056374;28;20422;-82
2022/05/09 05:03:30;;;;;;;6.17;5.77;;;;;;;;;;5056736;28;20430;-83
2022/05/09 05:05:56;;;;;;;5.80;5.40;;;;;;;;;;5056884;28;20480;-83
2022/05/09 05:08:22;;;;;;;7.23;6.50;;;;;;;;;;5055230;28;20442;-81
2022/05/09 05:10:55;;;;;;;9.83;5.53;;;;;;;;;;5056247;28;20901;-79
2022/05/09 05:13:22;;;;;;;6.23;5.63;;;;;;;;;;5056604;28;20457;-79
2022/05/09 05:15:48;;;;;;;6.77;6.33;;;;;;;;;;5056877;28;20426;-81
2022/05/09 05:18:24;;;;;;;11.57;7.03;;;;;;;;;;5056526;28;20753;-74
2022/05/09 05:20:50;;;;;;;5.30;4.90;;;;;;;;;;5056652;28;20847;-83
2022/05/09 05:23:17;;;;;;;5.93;5.53;;;;;;;;;;5056353;28;20430;-83
2022/05/09 05:25:45;;;;;;;5.93;5.60;;;;;;;;;;5056176;28;20418;-83
2022/05/09 05:28:11;;;;;;;6.03;5.70;;;;;;;;;;5054659;28;20433;-82
2022/05/09 05:30:38;;;;;;;6.73;6.13;;;;;;;;;;5056126;28;20414;-80
2022/05/09 05:33:04;;;;;;;6.93;6.33;;;;;;;;;;5055859;28;20893;-83
2022/05/09 05:35:31;;;;;;;6.70;6.20;;;;;;;;;;5055786;28;20934;-79
2022/05/09 05:37:57;;;;;;;6.13;5.70;;;;;;;;;;5056030;28;20418;-83
2022/05/09 05:40:23;;;;;;;6.30;5.97;;;;;;;;;;5056105;28;20422;-83
2022/05/09 05:42:49;;;;;;;7.80;7.10;;;;;;;;;;5056028;28;20414;-84
2022/05/09 05:45:16;;;;;;;6.87;6.30;;;;;;;;;;5055649;28;20903;-83
2022/05/09 05:47:42;;;;;;;6.20;5.90;;;;;;;;;;5055363;28;20434;-83
2022/05/09 05:50:09;;;;;;;6.70;6.07;;;;;;;;;;5055528;28;20552;-83
2022/05/09 05:52:35;;;;;;;6.30;6.00;;;;;;;;;;5055571;28;20599;-81
2022/05/09 05:55:01;;;;;;;7.17;6.77;;;;;;;;;;5054159;28;20450;-84
2022/05/09 05:57:28;;;;;;;6.23;5.93;;;;;;;;;;5055342;28;20472;-82
2022/05/09 05:59:59;;;;;;;5.37;5.17;;;;;;;;;;5054074;28;20930;-83
2022/05/09 06:02:25;;;;;;;6.07;5.77;;;;;;;;;;5055847;28;20407;-81
2022/05/09 06:07:55;;;;;;;6.53;6.03;;;;;;;;;;5055355;28;20390;-78
2022/05/09 06:10:22;;;;;;;6.20;5.80;;;;;;;;;;5055342;28;20472;-81
2022/05/09 06:12:48;;;;;;;10.03;5.60;;;;;;;;;;5055252;28;20481;-78
2022/05/09 06:15:24;;;;;;;6.93;6.33;;;;;;;;;;5053957;28;20465;-83
2022/05/09 06:17:50;;;;;;;5.73;5.33;;;;;;;;;;5054913;28;20501;-80
2022/05/09 06:20:17;;;;;;;5.93;5.40;;;;;;;;;;5055359;28;20457;-80
2022/05/09 06:22:42;;;;;;;6.13;5.83;;;;;;;;;;5055005;28;20510;-84
2022/05/09 06:25:13;;;;;;;7.33;6.83;;;;;;;;;;5055414;28;20835;-82
2022/05/09 06:27:39;;;;;;;7.30;6.57;;;;;;;;;;5054994;28;20502;-83
2022/05/09 06:30:06;;;;;;;5.83;5.43;;;;;;;;;;5054905;28;20493;-83
2022/05/09 06:32:32;;;;;;;6.27;5.77;;;;;;;;;;5055082;28;20470;-81
2022/05/09 06:35:00;;;;;;;6.80;6.20;;;;;;;;;;5053474;28;20426;-83
2022/05/09 06:37:28;;;;;;;6.70;6.27;;;;;;;;;;5053390;28;20530;-80
2022/05/09 06:39:55;;;;;;;6.40;6.00;;;;;;;;;;5054528;28;20423;-67
2022/05/09 06:42:21;;;;;;;5.97;5.57;;;;;;;;;;5054869;28;20411;-67
2022/05/09 06:44:47;;;;;;;7.93;6.00;;;;;;;;;;5054079;28;20396;-84
2022/05/09 06:47:13;;;;;;;6.30;6.00;;;;;;;;;;5054566;28;20271;-83
2022/05/09 06:49:39;;;;;;;9.23;5.97;;;;;;;;;;5054621;28;20484;-83
2022/05/09 06:52:05;;;;;;;6.93;5.60;;;;;;;;;;5054440;28;20425;-78
2022/05/09 06:54:31;;;;;;;6.50;6.13;;;;;;;;;;5054321;28;20479;-76
2022/05/09 06:56:57;;;;;;;5.60;5.40;;;;;;;;;;5054281;28;20410;-83
2022/05/09 06:59:23;;;;;;;7.60;6.10;;;;;;;;;;5053980;28;20813;-76
2022/05/09 07:01:50;;;;;;;6.80;6.10;;;;;;;;;;5054500;28;20410;-79
2022/05/09 07:04:16;;;;;;;6.43;6.03;;;;;;;;;;5054161;28;20422;-81
2022/05/09 07:06:42;;;;;;;4.47;4.03;;;;;;;;;;5054233;28;20419;-84
2022/05/09 07:09:12;;;;;;;6.80;6.20;;;;;;;;;;5054351;28;20472;-82
2022/05/09 07:11:38;;;;;;;6.87;6.37;;;;;;;;;;5054361;28;20498;-82
2022/05/09 07:14:05;;;;;;;6.87;6.27;;;;;;;;;;5053864;28;20984;-83
2022/05/09 07:16:31;;;;;;;5.50;5.20;;;;;;;;;;5053956;28;20459;-83
2022/05/09 07:18:57;;;;;;;6.90;6.40;;;;;;;;;;5054274;28;20426;-84
2022/05/09 07:21:23;;;;;;;6.77;6.47;;;;;;;;;;5052709;28;20979;-83
2022/05/09 07:23:49;;;;;;;5.80;5.60;;;;;;;;;;5052557;28;20454;-83
2022/05/09 07:26:16;;;;;;;7.07;6.37;;;;;;;;;;5053927;28;20418;-79
2022/05/09 07:28:42;;;;;;;7.47;5.70;;;;;;;;;;5053761;28;20930;-83
2022/05/09 07:31:09;;;;;;;7.00;6.43;;;;;;;;;;5053859;28;20426;-83
2022/05/09 07:33:36;;;;;;;6.77;6.27;;;;;;;;;;5053562;28;20816;-83
2022/05/09 07:36:02;;;;;;;6.37;5.40;;;;;;;;;;5053656;28;20410;-83
2022/05/09 07:38:28;;;;;;;6.70;6.10;;;;;;;;;;5053509;28;20510;-83
2022/05/09 07:40:54;;;;;;;8.97;6.73;;;;;;;;;;5053595;28;20407;-82
2022/05/09 07:43:23;;;;;;;6.27;5.70;;;;;;;;;;5054119;28;20850;-79
2022/05/09 07:45:49;;;;;;;5.60;5.30;;;;;;;;;;5053703;28;20487;-79
2022/05/09 07:48:16;;;;;;;6.00;5.70;;;;;;;;;;5053702;28;20445;-77
2022/05/09 07:50:42;;;;;;;5.90;5.50;;;;;;;;;;5053278;28;20470;-81
2022/05/09 07:53:18;;;;;;;6.77;6.17;;;;;;;;;;5053585;28;20469;-77
2022/05/09 07:55:44;;;;;;;6.23;5.83;;;;;;;;;;5053161;28;20445;-76
2022/05/09 07:58:11;;;;;;;5.60;5.17;;;;;;;;;;5053312;28;20509;-81
2022/05/09 08:00:37;;;;;;;6.70;6.30;;;;;;;;;;5053523;28;20496;-78
2022/05/09 08:03:04;;;;;;;4.70;4.33;;;;;;;;;;5053505;28;20416;-77
2022/05/09 08:05:30;;;;;;;5.93;5.67;;;;;;;;;;5053501;28;20413;-83
2022/05/09 08:07:56;;;;;;;6.23;5.73;;;;;;;;;;5053181;28;20419;-79
2022/05/09 08:10:22;;;;;;;4.43;4.13;;;;;;;;;;5052848;28;20394;-76
2022/05/09 08:12:48;;;;;;;5.50;5.03;;;;;;;;;;5052607;28;20470;-80
2022/05/09 08:15:16;;;;;;;6.17;5.50;;;;;;;;;;5052977;28;20442;-77
2022/05/09 08:17:44;;;;;;;6.27;4.57;;;;;;;;;;5053268;28;20415;-77
2022/05/09 08:20:12;;;;;;;5.90;5.60;;;;;;;;;;5052976;28;20903;-79
2022/05/09 08:22:38;;;;;;;4.50;4.30;;;;;;;;;;5052889;28;20437;-76
2022/05/09 08:25:05;;;;;;;5.50;5.17;;;;;;;;;;5052864;28;20411;-74
2022/05/09 08:27:32;;;;;;;7.27;5.03;;;;;;;;;;5053543;28;20422;-77
2022/05/09 08:29:58;;;;;;;7.50;5.37;;;;;;;;;;5053049;28;20415;-78
2022/05/09 08:32:26;;;;;;;5.37;5.17;;;;;;;;;;5053109;28;20494;-77
2022/05/09 08:34:52;;;;;;;5.50;5.30;;;;;;;;;;5053093;28;20437;-78
2022/05/09 08:37:21;;;;;;;5.70;5.30;;;;;;;;;;5052811;28;20449;-78
2022/05/09 08:39:47;;;;;;;5.13;4.83;;;;;;;;;;5052676;28;20930;-77
2022/05/09 08:42:36;;;;;;;14.17;5.03;;;;;;;;;;5052985;28;20422;-75
2022/05/09 08:45:16;;;;;;;4.93;4.63;;;;;;;;;;5049655;28;20457;-71
2022/05/09 08:47:51;;;;;;;6.57;6.07;;;;;;;;;;5053034;28;20736;-77
2022/05/09 08:50:21;;;;;;;6.10;5.70;;;;;;;;;;5052777;28;20473;-76
2022/05/09 08:52:59;;;;;;;6.00;5.20;;;;;;;;;;5052553;28;20482;-80
2022/05/09 08:55:38;;;;;;;5.73;4.83;;;;;;;;;;5052588;28;20442;-80
2022/05/09 08:58:10;;;;;;;5.23;4.93;;;;;;;;;;5052922;28;20421;-79
2022/05/09 09:00:37;;;;;;;5.37;5.07;;;;;;;;;;5052674;28;20411;-79
2022/05/09 09:03:12;;;;;;;5.03;4.70;;;;;;;;;;5052756;28;20468;-80
2022/05/09 09:05:40;;;;;;;4.53;4.00;;;;;;;;;;5052979;28;20905;-75
2022/05/09 09:08:12;;;;;;;4.47;4.37;;;;;;;;;;5052511;28;20516;-80
2022/05/09 09:10:39;;;;;;;4.93;3.60;;;;;;;;;;5052738;28;20429;-78
2022/05/09 09:13:19;;;;;;;4.27;4.10;;;;;;;;;;5052664;28;20527;-74
2022/05/09 09:15:57;;;;;;;7.80;5.03;;;;;;;;;;5052694;28;20400;-79
2022/05/09 09:18:31;;;;;;;7.93;4.73;;;;;;;;;;5052702;28;20425;-78
2022/05/09 09:21:02;;;;;;;5.23;4.83;;;;;;;;;;5052314;28;20398;-78
2022/05/09 09:23:30;;;;;;;5.03;4.73;;;;;;;;;;5054644;28;20909;-79
2022/05/09 09:26:16;;;;;;;4.30;3.97;;;;;;;;;;5056033;28;20472;-78
2022/05/09 09:28:49;;;;;;;4.10;4.00;;;;;;;;;;5056086;28;20410;-78
2022/05/09 09:31:35;;;;;;;5.03;4.60;;;;;;;;;;5056367;28;20449;-77
2022/05/09 09:34:17;;;;;;;6.37;4.93;;;;;;;;;;5056054;28;20473;-74
2022/05/09 09:36:46;;;;;;;4.07;3.87;;;;;;;;;;5055991;28;20864;-74
2022/05/09 09:39:19;;;;;;;4.83;4.50;;;;;;;;;;5056265;28;20423;-76
2022/05/09 09:41:46;;;;;;;6.93;3.80;;;;;;;;;;5055850;28;20920;-79
2022/05/09 09:44:25;;;;;;;4.00;3.83;;;;;;;;;;5055789;28;20446;-77
2022/05/09 09:47:04;;;;;;;3.70;3.50;;;;;;;;;;5055748;28;20394;-76
2022/05/09 09:49:30;;;;;;;4.77;4.47;;;;;;;;;;5054483;28;20508;-74
2022/05/09 09:51:57;;;;;;;6.17;3.17;;;;;;;;;;5055633;28;20458;-78
2022/05/09 09:54:26;;;;;;;3.20;3.00;;;;;;;;;;5055504;28;20469;-75
2022/05/09 09:56:53;;;;;;;4.10;3.90;;;;;;;;;;5055850;28;20510;-78
2022/05/09 09:59:20;;;;;;;3.50;3.30;;;;;;;;;;5055427;28;20521;-80
2022/05/09 10:02:00;;;;;;;4.37;4.27;;;;;;;;;;5055413;28;20425;-79
2022/05/09 10:04:28;;;;;;;5.40;4.23;;;;;;;;;;5055663;28;20403;-76
2022/05/09 10:07:07;;;;;;;3.23;3.13;;;;;;;;;;5055326;28;20753;-79
2022/05/09 10:09:37;;;;;;;4.80;4.40;;;;;;;;;;5055162;28;20410;-80
2022/05/09 10:12:17;;;;;;;5.40;5.20;;;;;;;;;;5055794;28;20835;-77
2022/05/09 10:14:43;;;;;;;4.83;4.60;;;;;;;;;;5055125;28;20860;-74
2022/05/09 10:17:17;;;;;;;4.37;4.17;;;;;;;;;;5055207;28;20445;-79
2022/05/09 10:19:44;;;;;;;5.33;4.50;;;;;;;;;;5055385;28;20508;-77
2022/05/09 10:25:09;;;;;;;7.20;5.27;;;;;;;;;;5055537;28;20453;-77
2022/05/09 10:27:36;;;;;;;4.80;4.60;;;;;;;;;;5055278;28;20425;-77
2022/05/09 10:30:08;;;;;;;5.40;4.37;;;;;;;;;;5055155;28;20418;-76
2022/05/09 10:32:45;;;;;;;3.70;3.60;;;;;;;;;;5054885;28;20473;-78
2022/05/09 10:35:21;;;;;;;3.83;3.73;;;;;;;;;;5054099;28;20473;-79
2022/05/09 10:37:54;;;;;;;3.47;3.37;;;;;;;;;;5054612;28;20413;-79
2022/05/09 10:40:22;;;;;;;3.40;3.30;;;;;;;;;;5054224;28;20414;-74
2022/05/09 10:42:51;;;;;;;3.80;3.50;;;;;;;;;;5054604;28;20421;-77
2022/05/09 10:45:19;;;;;;;5.30;4.90;;;;;;;;;;5054687;28;20411;-78
2022/05/09 10:47:52;;;;;;;4.00;3.80;;;;;;;;;;5054807;28;20415;-78
2022/05/09 10:50:27;;;;;;;5.17;4.83;;;;;;;;;;5054678;28;20549;-80
2022/05/09 10:53:11;;;;;;;5.80;5.40;;;;;;;;;;5054700;28;20454;-79
2022/05/09 10:55:40;;;;;;;4.33;4.03;;;;;;;;;;5053170;28;20453;-77
2022/05/09 10:58:06;;;;;;;4.40;4.30;;;;;;;;;;5054378;28;20411;-80
2022/05/09 11:00:33;;;;;;;4.67;4.27;;;;;;;;;;5054791;28;20525;-78
2022/05/09 11:03:06;;;;;;;4.33;3.93;;;;;;;;;;5054515;28;20407;-81
2022/05/09 11:05:49;;;;;;;4.60;4.20;;;;;;;;;;5054278;28;20395;-76
2022/05/09 11:08:22;;;;;;;4.57;4.17;;;;;;;;;;5054570;28;20448;-78
2022/05/09 11:10:54;;;;;;;4.37;4.27;;;;;;;;;;5054412;28;20395;-79
2022/05/09 11:13:20;;;;;;;8.83;4.47;;;;;;;;;;5054309;28;20819;-78
2022/05/09 11:15:51;;;;;;;4.53;4.40;;;;;;;;;;5053985;28;20429;-75
2022/05/09 11:18:23;;;;;;;3.07;3.07;;;;;;;;;;5054283;28;20407;-75
2022/05/09 11:20:52;;;;;;;5.53;5.13;;;;;;;;;;5054068;28;20893;-69
2022/05/09 11:23:32;;;;;;;4.50;4.13;;;;;;;;;;5053770;28;20781;-77
2022/05/09 11:26:17;;;;;;;4.17;4.07;;;;;;;;;;5054103;28;20418;-79
2022/05/09 11:28:43;;;;;;;4.77;4.57;;;;;;;;;;5053869;28;20503;-78
2022/05/09 11:31:21;;;;;;;9.27;5.10;;;;;;;;;;5054120;28;20481;-76
2022/05/09 11:34:00;;;;;;;5.07;4.80;;;;;;;;;;5053519;28;20996;-78
2022/05/09 11:36:26;;;;;;;4.30;4.00;;;;;;;;;;5053734;28;20477;-78
2022/05/09 11:39:01;;;;;;;4.73;4.43;;;;;;;;;;5053590;28;20403;-78
2022/05/09 11:41:32;;;;;;;4.40;4.10;;;;;;;;;;5053706;28;20455;-76
2022/05/09 11:43:58;;;;;;;7.93;4.43;;;;;;;;;;5053830;28;20922;-78
2022/05/09 11:46:42;;;;;;;4.67;4.33;;;;;;;;;;5053256;28;20910;-77
2022/05/09 11:49:27;;;;;;;30.17;6.70;;;;;;;;;;5053610;28;20463;-80
2022/05/09 11:51:55;;;;;;;5.07;4.27;;;;;;;;;;5053251;28;20454;-81
2022/05/09 11:54:21;;;;;;;3.97;3.87;;;;;;;;;;5053441;28;20477;-81
2022/05/09 11:56:48;;;;;;;8.30;3.80;;;;;;;;;;5053307;28;20488;-81
2022/05/09 11:59:26;;;;;;;6.73;5.10;;;;;;;;;;5053665;28;20422;-81
2022/05/09 12:01:56;;;;;;;4.17;3.97;;;;;;;;;;5053462;28;20427;-81
2022/05/09 12:04:40;;;;;;;3.83;3.73;;;;;;;;;;5053445;28;20422;-81
2022/05/09 12:07:22;;;;;;;7.50;4.13;;;;;;;;;;5052268;28;20438;-76
2022/05/09 12:10:04;;;;;;;5.00;4.60;;;;;;;;;;5053816;28;20410;-77
2022/05/09 12:12:54;;;;;;;7.43;4.20;;;;;;;;;;5053066;28;20399;-74
2022/05/09 12:15:20;;;;;;;5.23;3.93;;;;;;;;;;5053325;28;20423;-81
2022/05/09 12:17:53;;;;;;;4.37;4.17;;;;;;;;;;5052994;28;20422;-81
2022/05/09 12:20:28;;;;;;;4.40;4.20;;;;;;;;;;5053288;28;20417;-81
2022/05/09 12:22:56;;;;;;;5.70;4.63;;;;;;;;;;5053203;28;20402;-79
2022/05/09 12:25:34;;;;;;;4.47;4.17;;;;;;;;;;5053163;28;20497;-79
2022/05/09 12:28:03;;;;;;;3.50;3.40;;;;;;;;;;5052908;28;20417;-76
2022/05/09 12:30:32;;;;;;;4.57;4.20;;;;;;;;;;5053231;28;20829;-77
2022/05/09 12:32:58;;;;;;;15.20;3.67;;;;;;;;;;5052823;28;20465;-76
2022/05/09 12:35:24;;;;;;;26.00;7.47;;;;;;;;;;5053178;28;20419;-73
2022/05/09 12:37:50;;;;;;;4.60;4.43;;;;;;;;;;5052813;28;20412;-79
2022/05/09 12:40:24;;;;;;;10.13;4.60;;;;;;;;;;5053091;28;20511;-80
2022/05/09 12:42:54;;;;;;;4.47;4.17;;;;;;;;;;5052541;28;20410;-76
2022/05/09 12:45:20;;;;;;;3.90;3.60;;;;;;;;;;5052615;28;20417;-75
2022/05/09 12:47:47;;;;;;;4.13;3.97;;;;;;;;;;5052666;28;20422;-77
2022/05/09 12:50:24;;;;;;;3.83;3.63;;;;;;;;;;5052624;28;20527;-79
2022/05/09 12:52:52;;;;;;;4.23;4.13;;;;;;;;;;5052922;28;20478;-79
2022/05/09 12:58:20;;;;;;;4.07;3.87;;;;;;;;;;5054504;28;20449;-79
2022/05/09 13:00:46;;;;;;;4.23;4.03;;;;;;;;;;5056602;28;20763;-77
2022/05/09 13:03:13;;;;;;;4.13;3.83;;;;;;;;;;5056764;28;20827;-75
2022/05/09 13:05:41;;;;;;;3.80;3.70;;;;;;;;;;5057030;28;20415;-77
2022/05/09 13:08:08;;;;;;;4.20;3.90;;;;;;;;;;5056717;28;20424;-75
2022/05/09 13:10:43;;;;;;;3.40;3.30;;;;;;;;;;5056682;28;20421;-67
2022/05/09 13:13:17;;;;;;;4.10;3.87;;;;;;;;;;5056166;28;20507;-78
2022/05/09 13:15:43;;;;;;;3.40;3.20;;;;;;;;;;5056626;28;20399;-77
2022/05/09 13:18:11;;;;;;;4.83;4.70;;;;;;;;;;5056301;28;20857;-65
2022/05/09 13:20:39;;;;;;;4.07;3.80;;;;;;;;;;5056321;28;20463;-73
2022/05/09 13:23:07;;;;;;;3.90;3.63;;;;;;;;;;5056192;28;20469;-79
2022/05/09 13:25:37;;;;;;;4.13;3.83;;;;;;;;;;5056464;28;20493;-77
2022/05/09 13:28:08;;;;;;;5.03;3.67;;;;;;;;;;5056362;28;20426;-74
2022/05/09 13:30:36;;;;;;;4.10;3.90;;;;;;;;;;5056436;28;20759;-79
2022/05/09 13:33:03;;;;;;;3.50;3.40;;;;;;;;;;5056045;28;20455;-79
2022/05/09 13:35:29;;;;;;;3.10;3.00;;;;;;;;;;5055966;28;20441;-79
2022/05/09 13:37:56;;;;;;;5.47;4.10;;;;;;;;;;5055864;28;20421;-79
2022/05/09 13:40:23;;;;;;;3.30;3.20;;;;;;;;;;5056076;28;20940;-73
2022/05/09 13:42:50;;;;;;;4.20;4.00;;;;;;;;;;5055869;28;20414;-78
2022/05/09 13:45:19;;;;;;;3.53;3.40;;;;;;;;;;5056005;28;20426;-73
2022/05/09 13:47:48;;;;;;;3.90;3.70;;;;;;;;;;5056015;28;20418;-80
2022/05/09 13:50:15;;;;;;;7.40;5.23;;;;;;;;;;5055681;28;20465;-79
2022/05/09 13:52:45;;;;;;;4.53;3.33;;;;;;;;;;5055886;28;20844;-75
2022/05/09 13:55:12;;;;;;;3.40;3.30;;;;;;;;;;5055823;28;20439;-76
2022/05/09 13:57:39;;;;;;;3.17;3.07;;;;;;;;;;5055833;28;20410;-76
2022/05/09 14:00:12;;;;;;;2.97;2.90;;;;;;;;;;5055556;28;20430;-79
2022/05/09 14:02:38;;;;;;;4.93;4.10;;;;;;;;;;5055651;28;20418;-82
2022/05/09 14:05:21;;;;;;;2.90;2.90;;;;;;;;;;5055565;28;20422;-76
2022/05/09 14:07:49;;;;;;;3.30;3.20;;;;;;;;;;5055485;28;20403;-74
2022/05/09 14:10:18;;;;;;;11.57;3.70;;;;;;;;;;5055591;28;20442;-77
2022/05/09 14:12:44;;;;;;;21.37;4.67;;;;;;;;;;5055567;28;20469;-78
2022/05/09 14:15:13;;;;;;;3.40;3.30;;;;;;;;;;5055556;28;20505;-77
2022/05/09 14:17:41;;;;;;;3.80;3.50;;;;;;;;;;5055191;28;20953;-76
2022/05/09 14:20:08;;;;;;;3.23;3.07;;;;;;;;;;5055201;28;20510;-81
2022/05/09 14:22:35;;;;;;;3.70;3.50;;;;;;;;;;5054987;28;20402;-80
2022/05/09 14:30:41;;;;;;;3.77;3.23;;;;;;;;;;5055206;28;20418;-81
2022/05/09 14:33:27;;;;;;;2.97;2.97;;;;;;;;;;5055589;28;20466;-81
2022/05/09 14:35:53;;;;;;;2.40;2.40;;;;;;;;;;5054756;28;20514;-82
2022/05/09 14:38:40;;;;;;;6.77;3.70;;;;;;;;;;5055092;28;20465;-81
2022/05/09 14:41:39;;;;;;;3.97;3.67;;;;;;;;;;5054812;28;20726;-80
2022/05/09 14:44:11;;;;;;;3.03;2.93;;;;;;;;;;5054671;28;20411;-79
2022/05/09 14:46:56;;;;;;;2.73;2.70;;;;;;;;;;5055172;28;20976;-77
2022/05/09 14:49:22;;;;;;;2.60;2.60;;;;;;;;;;5054831;28;20409;-76
2022/05/09 14:52:23;;;;;;;3.17;3.10;;;;;;;;;;5054468;28;20474;-76
2022/05/09 14:57:25;;;;;;;3.20;3.10;;;;;;;;;;5032468;28;20985;-80
2022/05/09 14:57:43;;;;;;;3.60;3.03;;;;;;;;;;5054232;28;20423;-81
2022/05/09 15:00:11;;;;;;;11.83;3.60;;;;;;;;;;5054294;28;20921;-80
2022/05/09 15:02:37;;;;;;;3.17;3.07;;;;;;;;;;5054403;28;20434;-79
2022/05/09 15:05:05;;;;;;;3.80;3.70;;;;;;;;;;5054544;28;20432;-80
2022/05/09 15:07:31;;;;;;;3.23;2.93;;;;;;;;;;5055073;28;20492;-80
2022/05/09 15:09:57;;;;;;;3.80;3.70;;;;;;;;;;5054438;28;20422;-81
2022/05/09 15:12:29;;;;;;;4.60;3.60;;;;;;;;;;5054375;28;20425;-79
2022/05/09 15:14:55;;;;;;;3.10;2.90;;;;;;;;;;5054374;28;20464;-81
2022/05/09 15:17:21;;;;;;;3.23;3.03;;;;;;;;;;5054330;28;20418;-81
2022/05/09 15:19:47;;;;;;;3.37;3.17;;;;;;;;;;5054276;28;20783;-81